createdAt,value
2019-02-06T00:01:33.735Z,102128.47
2019-02-06T00:04:06.331Z,102130.38
2019-02-06T00:06:40.671Z,102126.63
2019-02-06T00:09:15.148Z,102130.53
2019-02-06T00:11:47.962Z,102122.83
2019-02-06T00:14:20.524Z,102128.44
2019-02-06T00:16:52.942Z,102124.53
2019-02-06T00:19:25.387Z,102117.13
2019-02-06T00:21:57.820Z,102130.03
2019-02-06T00:24:30.040Z,102130.94
2019-02-06T00:27:02.414Z,102133.63
2019-02-06T00:29:35.389Z,102134.13
2019-02-06T00:32:07.739Z,102134.94
2019-02-06T00:34:40.098Z,102131.33
2019-02-06T00:37:12.327Z,102133.94
2019-02-06T00:39:45.609Z,102139.07
2019-02-06T00:42:18.412Z,102136.88
2019-02-06T00:44:50.728Z,102146.47
2019-02-06T00:47:23.062Z,102146.07
2019-02-06T00:49:55.355Z,102147.17
2019-02-06T00:52:27.641Z,102146.77
2019-02-06T00:55:00.342Z,102145.57
2019-02-06T00:57:32.568Z,102143.47
2019-02-06T01:00:07.396Z,102153.14
2019-02-06T01:02:39.805Z,102147.77
2019-02-06T01:05:14.117Z,102149.38
2019-02-06T01:07:48.041Z,102148.07
2019-02-06T01:10:20.639Z,102144.77
2019-02-06T01:12:55.020Z,102148.57
2019-02-06T01:15:31.622Z,102145.17
2019-02-06T01:18:05.297Z,102147.57
2019-02-06T01:20:38.773Z,102154.88
2019-02-06T01:23:11.144Z,102157.17
2019-02-06T01:25:44.783Z,102156.94
2019-02-06T01:28:22.802Z,102156.03
2019-02-06T01:30:58.764Z,102149.73
2019-02-06T01:33:31.022Z,102154.04
2019-02-06T01:36:03.244Z,102156.64
2019-02-06T01:38:43.239Z,102154.04
2019-02-06T01:41:15.508Z,102153.04
2019-02-06T01:43:48.198Z,102150.84
2019-02-06T01:46:20.537Z,102152.14
2019-02-06T01:48:52.871Z,102152.73
2019-02-06T01:51:25.492Z,102152.58
2019-02-06T01:53:57.808Z,102156.53
2019-02-06T01:56:30.056Z,102155.58
2019-02-06T01:59:02.333Z,102157.67
2019-02-06T02:01:36.193Z,102154.97
2019-02-06T02:04:09.788Z,102160.27
2019-02-06T02:06:42.130Z,102158.58
2019-02-06T02:09:19.743Z,102159.27
2019-02-06T02:11:52.137Z,102150.67
2019-02-06T02:14:24.662Z,102152.88
2019-02-06T02:16:56.986Z,102154.27
2019-02-06T02:19:29.444Z,102155.17
2019-02-06T02:22:02.576Z,102153.14
2019-02-06T02:24:34.967Z,102157.14
2019-02-06T02:27:07.573Z,102157.03
2019-02-06T02:29:40.464Z,102162.50
2019-02-06T02:32:12.681Z,102162.44
2019-02-06T02:34:45.025Z,102161.70
2019-02-06T02:37:17.280Z,102157.40
2019-02-06T02:39:49.812Z,102162.94
2019-02-06T02:42:22.050Z,102167.64
2019-02-06T02:44:55.139Z,102169.00
2019-02-06T02:47:27.676Z,102171.80
2019-02-06T02:49:59.901Z,102175.04
2019-02-06T02:52:32.398Z,102169.84
2019-02-06T02:55:08.492Z,102175.74
2019-02-06T02:57:42.000Z,102170.14
2019-02-06T03:00:17.789Z,102177.14
2019-02-06T03:02:56.835Z,102180.55
2019-02-06T03:05:31.938Z,102180.55
2019-02-06T03:08:06.601Z,102171.61
2019-02-06T03:10:45.197Z,102180.31
2019-02-06T03:13:17.624Z,102176.91
2019-02-06T03:15:49.934Z,102182.20
2019-02-06T03:18:22.331Z,102180.31
2019-02-06T03:20:56.221Z,102186.91
2019-02-06T03:23:28.811Z,102195.02
2019-02-06T03:26:01.186Z,102186.34
2019-02-06T03:28:35.309Z,102180.31
2019-02-06T03:31:07.691Z,102183.75
2019-02-06T03:33:46.665Z,102185.45
2019-02-06T03:36:18.946Z,102183.41
2019-02-06T03:38:51.219Z,102186.74
2019-02-06T03:41:26.715Z,102189.81
2019-02-06T03:44:04.414Z,102189.34
2019-02-06T03:46:38.203Z,102185.45
2019-02-06T03:49:10.437Z,102189.64
2019-02-06T03:51:42.669Z,102189.15
2019-02-06T03:54:16.347Z,102189.95
2019-02-06T03:56:48.946Z,102185.55
2019-02-06T03:59:28.395Z,102185.94
2019-02-06T04:02:00.684Z,102191.98
2019-02-06T04:04:35.975Z,102195.87
2019-02-06T04:07:08.165Z,102188.14
2019-02-06T04:09:40.424Z,102186.78
2019-02-06T04:12:12.746Z,102187.68
2019-02-06T04:14:44.937Z,102184.64
2019-02-06T04:17:17.300Z,102185.08
2019-02-06T04:19:49.553Z,102189.45
2019-02-06T04:22:21.857Z,102190.68
2019-02-06T04:24:57.186Z,102193.84
2019-02-06T04:27:31.324Z,102192.05
2019-02-06T04:30:05.539Z,102193.18
2019-02-06T04:32:37.800Z,102190.34
2019-02-06T04:35:11.548Z,102191.58
2019-02-06T04:37:43.919Z,102191.98
2019-02-06T04:40:18.246Z,102195.87
2019-02-06T04:42:51.129Z,102200.25
2019-02-06T04:45:23.426Z,102199.45
2019-02-06T04:47:55.730Z,102198.38
2019-02-06T04:50:28.043Z,102199.28
2019-02-06T04:53:00.334Z,102198.88
2019-02-06T04:55:33.037Z,102204.15
2019-02-06T04:58:05.440Z,102201.75
2019-02-06T05:00:37.772Z,102202.52
2019-02-06T05:03:10.167Z,102202.62
2019-02-06T05:05:42.517Z,102200.52
2019-02-06T05:08:15.072Z,102207.19
2019-02-06T05:10:47.547Z,102206.42
2019-02-06T05:13:19.795Z,102209.82
2019-02-06T05:15:52.254Z,102216.19
2019-02-06T05:18:24.526Z,102208.62
2019-02-06T05:20:57.065Z,102213.28
2019-02-06T05:23:29.566Z,102212.89
2019-02-06T05:26:02.047Z,102210.59
2019-02-06T05:28:34.348Z,102213.59
2019-02-06T05:31:06.695Z,102220.92
2019-02-06T05:33:39.158Z,102221.33
2019-02-06T05:36:11.529Z,102221.62
2019-02-06T05:38:43.960Z,102225.92
2019-02-06T05:41:16.450Z,102227.13
2019-02-06T05:43:48.878Z,102234.02
2019-02-06T05:46:21.354Z,102233.96
2019-02-06T05:48:53.592Z,102237.36
2019-02-06T05:51:25.843Z,102235.95
2019-02-06T05:53:58.115Z,102240.55
2019-02-06T05:56:30.412Z,102248.69
2019-02-06T05:59:02.716Z,102244.28
2019-02-06T06:01:35.133Z,102245.08
2019-02-06T06:04:07.553Z,102248.88
2019-02-06T06:06:39.844Z,102249.22
2019-02-06T06:09:12.277Z,102245.31
2019-02-06T06:11:44.662Z,102253.11
2019-02-06T06:14:18.135Z,102253.11
2019-02-06T06:16:50.395Z,102255.71
2019-02-06T06:19:23.484Z,102255.31
2019-02-06T06:21:55.894Z,102256.91
2019-02-06T06:24:28.126Z,102265.51
2019-02-06T06:27:00.715Z,102263.11
2019-02-06T06:29:32.916Z,102275.06
2019-02-06T06:32:05.224Z,102275.61
2019-02-06T06:34:37.495Z,102270.22
2019-02-06T06:37:09.776Z,102268.91
2019-02-06T06:39:42.090Z,102270.31
2019-02-06T06:42:14.353Z,102277.39
2019-02-06T06:44:46.576Z,102281.26
2019-02-06T06:47:18.862Z,102281.06
2019-02-06T06:49:51.169Z,102291.73
2019-02-06T06:52:23.397Z,102291.23
2019-02-06T06:54:55.643Z,102291.84
2019-02-06T06:57:27.892Z,102296.64
2019-02-06T07:00:00.484Z,102294.87
2019-02-06T07:02:32.751Z,102293.17
2019-02-06T07:05:05.840Z,102301.58
2019-02-06T07:07:38.150Z,102299.68
2019-02-06T07:10:12.311Z,102301.37
2019-02-06T07:12:45.949Z,102301.98
2019-02-06T07:15:20.933Z,102297.14
2019-02-06T07:17:53.213Z,102299.05
2019-02-06T07:20:25.413Z,102310.30
2019-02-06T07:22:57.675Z,102307.45
2019-02-06T07:25:29.922Z,102309.09
2019-02-06T07:28:02.185Z,102307.79
2019-02-06T07:30:35.947Z,102307.95
2019-02-06T07:33:08.189Z,102310.56
2019-02-06T07:35:40.463Z,102314.86
2019-02-06T07:38:23.847Z,102317.17
2019-02-06T07:40:47.721Z,102316.43
2019-02-06T07:43:20.029Z,102311.83
2019-02-06T07:45:52.233Z,102314.53
2019-02-06T07:48:24.814Z,102322.30
2019-02-06T07:50:57.126Z,102319.86
2019-02-06T07:53:29.370Z,102317.00
2019-02-06T07:56:01.677Z,102321.50
2019-02-06T07:58:33.930Z,102318.06
2019-02-06T08:01:06.429Z,102321.66
2019-02-06T08:03:38.732Z,102320.56
2019-02-06T08:06:10.974Z,102319.27
2019-02-06T08:08:43.258Z,102319.29
2019-02-06T08:11:15.534Z,102323.79
2019-02-06T08:13:47.942Z,102330.41
2019-02-06T08:16:20.172Z,102327.70
2019-02-06T08:18:53.535Z,102327.55
2019-02-06T08:21:25.963Z,102323.34
2019-02-06T08:23:58.228Z,102328.31
2019-02-06T08:26:31.292Z,102319.00
2019-02-06T08:29:03.790Z,102320.56
2019-02-06T08:31:36.011Z,102311.98
2019-02-06T08:34:08.312Z,102315.01
2019-02-06T08:36:40.715Z,102319.45
2019-02-06T08:39:12.941Z,102321.61
2019-02-06T08:41:45.265Z,102322.66
2019-02-06T08:44:17.515Z,102320.40
2019-02-06T08:46:49.732Z,102324.81
2019-02-06T08:49:22.398Z,102323.55
2019-02-06T08:51:54.892Z,102317.61
2019-02-06T08:54:27.226Z,102321.46
2019-02-06T08:56:59.759Z,102317.73
2019-02-06T08:59:32.019Z,102319.09
2019-02-06T09:02:04.918Z,102317.82
2019-02-06T09:04:37.232Z,102317.03
2019-02-06T09:07:14.952Z,102314.01
2019-02-06T09:09:47.176Z,102309.70
2019-02-06T09:12:19.439Z,102303.92
2019-02-06T09:14:51.658Z,102304.71
2019-02-06T09:17:24.359Z,102294.67
2019-02-06T09:19:56.667Z,102291.78
2019-02-06T09:22:29.286Z,102291.19
2019-02-06T09:25:01.963Z,102290.58
2019-02-06T09:27:34.223Z,102293.28
2019-02-06T09:30:07.239Z,102291.15
2019-02-06T09:32:39.514Z,102292.27
2019-02-06T09:35:12.155Z,102293.32
2019-02-06T09:37:44.804Z,102286.81
2019-02-06T09:40:20.827Z,102286.97
2019-02-06T09:42:53.163Z,102290.45
2019-02-06T09:45:25.719Z,102285.55
2019-02-06T09:47:58.134Z,102285.57
2019-02-06T09:50:32.973Z,102285.01
2019-02-06T09:53:05.722Z,102276.30
2019-02-06T09:55:38.381Z,102261.37
2019-02-06T09:58:10.685Z,102262.67
2019-02-06T10:00:43.019Z,102273.34
2019-02-06T10:03:16.295Z,102273.70
2019-02-06T10:05:48.695Z,102276.27
2019-02-06T10:08:20.968Z,102271.66
2019-02-06T10:10:53.257Z,102274.94
2019-02-06T10:13:25.733Z,102271.36
2019-02-06T10:15:58.103Z,102275.01
2019-02-06T10:18:30.318Z,102276.60
2019-02-06T10:21:02.816Z,102275.46
2019-02-06T10:23:35.071Z,102277.02
2019-02-06T10:26:07.758Z,102274.41
2019-02-06T10:28:40.021Z,102274.06
2019-02-06T10:31:12.362Z,102268.86
2019-02-06T10:33:45.640Z,102265.92
2019-02-06T10:36:17.968Z,102263.12
2019-02-06T10:38:50.475Z,102259.14
2019-02-06T10:41:22.698Z,102263.75
2019-02-06T10:43:55.118Z,102259.17
2019-02-06T10:46:27.436Z,102262.38
2019-02-06T10:48:59.853Z,102248.67
2019-02-06T10:51:32.080Z,102240.66
2019-02-06T10:54:04.517Z,102240.45
2019-02-06T10:56:36.816Z,102240.41
2019-02-06T10:59:09.179Z,102232.59
2019-02-06T11:01:41.434Z,102225.27
2019-02-06T11:04:13.836Z,102223.94
2019-02-06T11:06:46.069Z,102231.42
2019-02-06T11:09:18.502Z,102227.16
2019-02-06T11:11:50.751Z,102224.61
2019-02-06T11:14:23.052Z,102222.80
2019-02-06T11:16:55.433Z,102224.71
2019-02-06T11:19:27.682Z,102221.09
2019-02-06T11:21:59.895Z,102214.03
2019-02-06T11:24:32.180Z,102209.89
2019-02-06T11:27:04.928Z,102217.23
2019-02-06T11:29:37.178Z,102215.62
2019-02-06T11:32:09.514Z,102208.44
2019-02-06T11:34:44.170Z,102211.71
2019-02-06T11:37:16.419Z,102210.91
2019-02-06T11:39:57.682Z,102206.52
2019-02-06T11:42:26.124Z,102199.41
2019-02-06T11:45:01.986Z,102195.46
2019-02-06T11:47:36.197Z,102199.05
2019-02-06T11:59:56.195Z,102162.64
2019-02-06T12:02:36.936Z,102172.82
2019-02-06T12:05:02.833Z,102174.63
2019-02-06T12:07:35.460Z,102172.83
2019-02-06T12:10:10.912Z,102175.89
2019-02-06T12:12:43.208Z,102176.32
2019-02-06T12:15:17.573Z,102168.84
2019-02-06T12:17:50.383Z,102169.90
2019-02-06T12:20:22.982Z,102166.66
2019-02-06T12:22:55.400Z,102152.37
2019-02-06T12:25:27.730Z,102144.04
2019-02-06T12:28:00.029Z,102148.90
2019-02-06T12:30:33.684Z,102135.87
2019-02-06T12:33:06.997Z,102135.84
2019-02-06T12:35:39.388Z,102125.13
2019-02-06T12:38:11.664Z,102118.80
2019-02-06T12:40:45.010Z,102123.88
2019-02-06T12:43:18.060Z,102122.15
2019-02-06T12:45:50.409Z,102118.75
2019-02-06T12:48:23.908Z,102118.03
2019-02-06T12:50:56.174Z,102121.50
2019-02-06T12:53:28.490Z,102112.22
2019-02-06T12:56:01.778Z,102102.05
2019-02-06T12:58:34.054Z,102098.59
2019-02-06T13:01:06.736Z,102099.53
2019-02-06T13:03:38.985Z,102098.88
2019-02-06T13:06:11.222Z,102098.17
2019-02-06T13:08:43.895Z,102087.14
2019-02-06T13:11:16.207Z,102080.63
2019-02-06T13:13:48.626Z,102075.75
2019-02-06T13:16:23.328Z,102076.23
2019-02-06T13:18:55.828Z,102083.48
2019-02-06T13:21:28.252Z,102075.62
2019-02-06T13:24:00.486Z,102070.95
2019-02-06T13:26:32.887Z,102070.27
2019-02-06T13:29:05.381Z,102064.08
2019-02-06T13:31:38.029Z,102053.60
2019-02-06T13:34:10.662Z,102057.33
2019-02-06T13:36:42.966Z,102059.80
2019-02-06T13:39:15.320Z,102057.86
2019-02-06T13:41:48.064Z,102049.45
2019-02-06T13:44:20.896Z,102037.62
2019-02-06T13:46:53.726Z,102038.16
2019-02-06T13:49:26.086Z,102045.06
2019-02-06T13:51:58.294Z,102039.23
2019-02-06T13:54:32.365Z,102027.23
2019-02-06T13:57:05.022Z,102018.29
2019-02-06T13:59:38.569Z,102022.27
2019-02-06T14:02:10.867Z,102021.75
2019-02-06T14:04:43.113Z,102024.11
2019-02-06T14:07:15.711Z,102024.17
2019-02-06T14:09:48.029Z,102015.64
2019-02-06T14:12:20.267Z,102011.55
2019-02-06T14:15:00.908Z,102013.21
2019-02-06T14:17:33.930Z,102015.12
2019-02-06T14:20:09.521Z,102014.38
2019-02-06T14:22:42.109Z,102005.40
2019-02-06T14:25:22.395Z,102008.02
2019-02-06T14:28:30.173Z,102003.02
2019-02-06T14:31:55.623Z,101991.15
2019-02-06T14:35:03.328Z,101988.73
2019-02-06T14:38:28.327Z,101983.56
2019-02-06T14:41:16.329Z,101987.52
2019-02-06T14:44:24.030Z,101983.05
2019-02-06T14:47:25.059Z,101975.27
2019-02-06T14:50:20.028Z,101980.02
2019-02-06T14:53:42.163Z,101969.03
2019-02-06T14:56:55.515Z,101965.32
2019-02-06T15:00:26.880Z,101958.75
2019-02-06T15:03:23.949Z,101952.83
2019-02-06T15:06:53.121Z,101950.44
2019-02-06T15:10:00.848Z,101952.73
2019-02-06T15:13:17.334Z,101949.27
2019-02-06T15:16:17.579Z,101935.93
2019-02-06T15:19:49.267Z,101936.70
2019-02-06T15:23:32.571Z,101929.48
2019-02-06T15:26:50.398Z,101934.94
2019-02-06T15:29:40.556Z,101947.04
2019-02-06T15:32:42.078Z,101936.59
2019-02-06T15:35:37.742Z,101929.98
2019-02-06T15:38:39.934Z,101931.67
2019-02-06T15:41:48.854Z,101926.72
2019-02-06T15:44:27.921Z,101912.57
2019-02-06T15:47:49.451Z,101911.45
2019-02-06T15:51:21.311Z,101923.38
2019-02-06T15:54:38.581Z,101915.03
2019-02-06T15:57:45.511Z,101914.55
2019-02-06T16:00:59.589Z,101915.69
2019-02-06T16:04:22.662Z,101912.81
2019-02-06T16:07:28.505Z,101911.42
2019-02-06T16:10:36.745Z,101904.28
2019-02-06T16:13:24.345Z,101908.59
2019-02-06T16:16:24.011Z,101907.16
2019-02-06T16:19:50.533Z,101903.07
2019-02-06T16:22:45.605Z,101899.08
2019-02-06T16:25:38.782Z,101896.33
2019-02-06T16:28:41.440Z,101886.41
2019-02-06T16:31:33.994Z,101892.59
2019-02-06T16:34:26.226Z,101888.78
2019-02-06T16:37:39.754Z,101881.37
2019-02-06T16:40:59.110Z,101890.41
2019-02-06T16:44:10.761Z,101880.41
2019-02-06T16:47:19.166Z,101878.70
2019-02-06T16:50:11.777Z,101887.72
2019-02-06T16:53:27.582Z,101892.34
2019-02-06T16:56:31.302Z,101879.68
2019-02-06T16:59:47.738Z,101882.09
2019-02-06T17:03:12.132Z,101883.73
2019-02-06T17:05:51.117Z,101886.01
2019-02-06T17:09:02.229Z,101885.66
2019-02-06T17:12:04.085Z,101882.60
2019-02-06T17:15:14.211Z,101880.45
2019-02-06T17:18:35.224Z,101876.41
2019-02-06T17:21:51.917Z,101873.55
2019-02-06T17:25:17.415Z,101870.06
2019-02-06T17:28:21.641Z,101868.03
2019-02-06T17:31:21.486Z,101866.53
2019-02-06T17:34:40.268Z,101864.00
2019-02-06T17:38:07.886Z,101861.18
2019-02-06T17:41:20.952Z,101853.09
2019-02-06T17:44:36.811Z,101846.45
2019-02-06T17:47:44.763Z,101853.48
2019-02-06T17:51:12.157Z,101858.93
2019-02-06T17:54:26.204Z,101848.44
2019-02-06T17:57:06.987Z,101855.53
2019-02-06T18:00:16.831Z,101855.41
2019-02-06T18:03:41.856Z,101850.95
2019-02-06T18:07:27.797Z,101853.14
2019-02-06T18:10:07.138Z,101848.50
2019-02-06T18:12:39.520Z,101857.56
2019-02-06T18:15:15.727Z,101854.06
2019-02-06T18:21:02.714Z,101846.44
2019-02-06T18:26:49.750Z,101852.06
2019-02-06T18:27:14.046Z,101847.43
2019-02-06T18:29:23.645Z,101852.62
2019-02-06T18:32:46.294Z,101849.13
2019-02-06T18:35:24.107Z,101843.72
2019-02-06T18:37:57.221Z,101845.48
2019-02-06T18:40:35.188Z,101844.67
2019-02-06T18:43:07.792Z,101843.78
2019-02-06T18:45:40.539Z,101841.39
2019-02-06T18:48:17.032Z,101840.98
2019-02-06T18:50:51.282Z,101836.94
2019-02-06T18:53:25.910Z,101837.64
2019-02-06T18:55:58.538Z,101833.09
2019-02-06T18:58:32.631Z,101829.59
2019-02-06T19:01:06.123Z,101821.61
2019-02-06T19:03:43.951Z,101820.95
2019-02-06T19:06:24.759Z,101814.38
2019-02-06T19:09:16.498Z,101811.42
2019-02-06T19:11:57.929Z,101815.72
2019-02-06T19:14:39.022Z,101810.92
2019-02-06T19:17:14.948Z,101819.80
2019-02-06T19:19:54.450Z,101805.33
2019-02-06T19:22:34.445Z,101800.05
2019-02-06T19:25:07.218Z,101799.58
2019-02-06T19:27:39.615Z,101798.84
2019-02-06T19:30:20.365Z,101800.23
2019-02-06T19:32:52.803Z,101796.94
2019-02-06T19:35:25.134Z,101796.63
2019-02-06T19:38:07.727Z,101793.70
2019-02-06T19:40:34.762Z,101787.95
2019-02-06T19:43:09.694Z,101783.55
2019-02-06T19:45:43.742Z,101780.06
2019-02-06T19:48:21.668Z,101772.37
2019-02-06T19:50:54.658Z,101766.88
2019-02-06T19:53:27.010Z,101764.23
2019-02-06T19:55:59.372Z,101759.44
2019-02-06T19:58:33.434Z,101762.20
2019-02-06T20:01:07.485Z,101755.09
2019-02-06T20:03:39.790Z,101758.00
2019-02-06T20:06:31.112Z,101757.20
2019-02-06T20:09:08.458Z,101751.70
2019-02-06T20:11:42.018Z,101747.07
2019-02-06T20:14:17.906Z,101747.31
2019-02-06T20:17:00.154Z,101743.98
2019-02-06T20:23:34.726Z,101742.07
2019-02-06T20:26:13.537Z,101745.47
2019-02-06T20:28:58.794Z,101737.58
2019-02-06T20:31:33.521Z,101739.38
2019-02-06T20:34:10.878Z,101733.48
2019-02-06T20:36:44.687Z,101734.98
2019-02-06T20:39:18.488Z,101731.28
2019-02-06T20:41:50.859Z,101727.14
2019-02-06T20:44:23.272Z,101723.09
2019-02-06T20:46:55.973Z,101724.70
2019-02-06T20:49:29.887Z,101729.80
2019-02-06T20:52:02.270Z,101731.28
2019-02-06T20:54:34.562Z,101718.37
2019-02-06T20:57:13.510Z,101715.02
2019-02-06T20:59:41.108Z,101712.52
2019-02-06T21:02:13.705Z,101716.77
2019-02-06T21:04:47.119Z,101711.13
2019-02-06T21:07:20.474Z,101713.38
2019-02-06T21:09:52.733Z,101708.53
2019-02-06T21:12:24.958Z,101703.40
2019-02-06T21:14:57.586Z,101703.09
2019-02-06T21:17:29.966Z,101700.84
2019-02-06T21:20:02.227Z,101698.74
2019-02-06T21:22:34.826Z,101688.32
2019-02-06T21:25:09.611Z,101685.38
2019-02-06T21:27:42.757Z,101684.83
2019-02-06T21:30:20.349Z,101688.03
2019-02-06T21:32:53.430Z,101678.39
2019-02-06T21:35:25.668Z,101684.28
2019-02-06T21:37:57.895Z,101677.55
2019-02-06T21:40:31.947Z,101682.13
2019-02-06T21:43:04.830Z,101682.39
2019-02-06T21:45:37.375Z,101684.42
2019-02-06T21:48:09.639Z,101683.03
2019-02-06T21:50:42.253Z,101688.72
2019-02-06T21:53:14.515Z,101677.59
2019-02-06T21:55:47.593Z,101670.76
2019-02-06T21:58:19.964Z,101670.81
2019-02-06T22:00:52.418Z,101677.39
2019-02-06T22:03:29.452Z,101674.45
2019-02-06T22:06:06.670Z,101669.41
2019-02-06T22:08:40.925Z,101672.06
2019-02-06T22:11:15.071Z,101667.47
2019-02-06T22:13:54.975Z,101668.37
2019-02-06T22:16:21.543Z,101659.99
2019-02-06T22:18:53.812Z,101663.67
2019-02-06T22:21:29.198Z,101662.98
2019-02-06T22:24:01.628Z,101662.98
2019-02-06T22:26:37.090Z,101664.22
2019-02-06T22:29:09.538Z,101666.63
2019-02-06T22:31:42.459Z,101658.34
2019-02-06T22:34:15.069Z,101659.58
2019-02-06T22:36:47.434Z,101655.99
2019-02-06T22:39:19.680Z,101656.80
2019-02-06T22:41:52.034Z,101655.40
2019-02-06T22:44:24.867Z,101658.34
2019-02-06T22:46:57.788Z,101651.55
2019-02-06T22:49:30.200Z,101650.75
2019-02-06T22:52:02.619Z,101655.30
2019-02-06T22:54:35.042Z,101649.31
2019-02-06T22:57:07.360Z,101645.61
2019-02-06T22:59:39.742Z,101633.94
2019-02-06T23:02:12.274Z,101637.48
2019-02-06T23:04:44.668Z,101632.50
2019-02-06T23:07:17.022Z,101632.59
2019-02-06T23:09:49.288Z,101621.81
2019-02-06T23:12:21.673Z,101626.27
2019-02-06T23:14:54.268Z,101624.56
2019-02-06T23:17:26.611Z,101628.36
2019-02-06T23:19:58.880Z,101624.12
2019-02-06T23:22:31.375Z,101627.20
2019-02-06T23:25:04.476Z,101619.83
2019-02-06T23:27:40.041Z,101627.02
2019-02-06T23:30:12.607Z,101618.58
2019-02-06T23:32:45.070Z,101614.99
2019-02-06T23:35:17.387Z,101613.60
2019-02-06T23:37:49.738Z,101617.83
2019-02-06T23:40:22.182Z,101611.55
2019-02-06T23:42:54.556Z,101608.66
2019-02-06T23:45:27.097Z,101603.56
2019-02-06T23:48:00.471Z,101602.73
2019-02-06T23:50:32.970Z,101592.45
2019-02-06T23:53:06.490Z,101579.98
2019-02-06T23:55:38.706Z,101573.70
2019-02-06T23:58:11.004Z,101568.41
